KFOK/FOK METAR and TAF weather

Enter ICAO airport designator
Station Type Date Time Source
KFOK METAR 2019/06/16 19:53 UTC NOAA

KFOK 161953Z 22011G16KT 10SM OVC010 21/17 A2986 RMK AO2 SLP111 T02060172


Station Type Date Time Source
KFOK Decoded METAR 2019/06/16 19:53 UTC NOAA

THE GABRESKI AIRPORT, NY, United States (KFOK) 40-51N 072-37W 33M
Jun 16, 2019 - 03:53 PM EDT / 2019.06.16 1953 UTC
Wind: from the SW (220 degrees) at 13 MPH (11 KT) gusting to 18 MPH (16 KT):0
Visibility: 10 mile(s):0
Sky conditions: overcast
Temperature: 69.1 F (20.6 C)
Dew Point: 63.0 F (17.2 C)
Relative Humidity: 80%
Pressure (altimeter): 29.86 in. Hg (1011 hPa)
ob: KFOK 161953Z 22011G16KT 10SM OVC010 21/17 A2986 RMK AO2 SLP111 T02060172
cycle: 20

Station Type Date Time Source
KFOK TAF UTC NOAA

Error!

Example: see airport list